Terminal Aerodrome Forecast
Issued by NWS

Home | Current Version | Previous Version | Text Only | Print | Product List | Glossary On
Versions: 1 2 3 4 5 6 7 8 9 10 11 12 13 14 15 16 17 18 19 20
079
FTUS43 KPAH 271549 AAB
TAFCGI
TAF AMD
KCGI 271549Z 2716/2812 27010KT P6SM OVC020
     FM272300 18005KT P6SM BKN050=

USA.gov is the U.S. government's official web portal to all federal, state and local government web resources and services.